Time;durP1;ratioP1;P1;durP2;ratioP2;P2;SDS_P1;SDS_P2;PMS_P1;PMS_P2;Temp;Humidity;BMP_temperature;BMP_pressure;BME280_temperature;BME280_humidity;BME280_pressure;Samples;Min_cycle;Max_cycle;Signal;HPM_P1;HPM_P2
2023/03/11 00:00:30;;;;;;;23.50;13.80;;;;;;;;;;10292307;28;20034;-80
2023/03/11 00:05:32;;;;;;;31.00;13.77;;;;;;;;;;10306909;28;20516;-79
2023/03/11 00:10:35;;;;;;;27.57;12.83;;;;;;;;;;10294226;28;20065;-81
2023/03/11 00:15:37;;;;;;;26.13;13.03;;;;;;;;;;10302187;28;20051;-81
2023/03/11 00:20:39;;;;;;;21.97;11.97;;;;;;;;;;10309643;28;20454;-80
2023/03/11 00:25:40;;;;;;;21.73;11.60;;;;;;;;;;10297988;28;20043;-79
2023/03/11 00:30:41;;;;;;;21.17;10.63;;;;;;;;;;10282883;28;20109;-79
2023/03/11 00:35:43;;;;;;;17.03;8.20;;;;;;;;;;10300264;28;20034;-82
2023/03/11 00:40:45;;;;;;;13.40;7.10;;;;;;;;;;10304026;28;20039;-82
2023/03/11 00:45:46;;;;;;;13.33;5.10;;;;;;;;;;10302797;28;20038;-81
2023/03/11 00:50:47;;;;;;;9.07;5.17;;;;;;;;;;10300636;28;20052;-81
2023/03/11 00:55:48;;;;;;;6.33;3.73;;;;;;;;;;10307225;28;20376;-80
2023/03/11 01:00:49;;;;;;;5.50;3.40;;;;;;;;;;10306379;28;20031;-81
2023/03/11 01:05:50;;;;;;;8.47;4.93;;;;;;;;;;10307086;28;20137;-80
2023/03/11 01:10:51;;;;;;;12.53;7.03;;;;;;;;;;10300630;28;20038;-79
2023/03/11 01:15:52;;;;;;;12.63;7.97;;;;;;;;;;10307295;28;20051;-80
2023/03/11 01:20:53;;;;;;;11.00;7.33;;;;;;;;;;10305596;28;20038;-81
2023/03/11 01:25:54;;;;;;;10.57;5.70;;;;;;;;;;10311270;28;20066;-81
2023/03/11 01:30:55;;;;;;;5.60;3.83;;;;;;;;;;10306171;28;20602;-80
2023/03/11 01:35:56;;;;;;;5.07;2.80;;;;;;;;;;10328337;28;20018;-80
2023/03/11 01:40:57;;;;;;;4.27;2.23;;;;;;;;;;10291227;28;20031;-81
2023/03/11 01:46:00;;;;;;;3.97;1.87;;;;;;;;;;10307497;28;20023;-79
2023/03/11 01:51:02;;;;;;;4.90;1.87;;;;;;;;;;10316154;28;20450;-80
2023/03/11 01:56:04;;;;;;;4.37;2.00;;;;;;;;;;10316569;28;20030;-81
2023/03/11 02:01:06;;;;;;;1.90;1.20;;;;;;;;;;10316494;28;20030;-82
2023/03/11 02:06:09;;;;;;;2.60;1.63;;;;;;;;;;10326343;28;20029;-80
2023/03/11 02:11:13;;;;;;;2.77;1.40;;;;;;;;;;10315486;28;20113;-81
2023/03/11 02:16:14;;;;;;;4.10;1.30;;;;;;;;;;10305723;28;20062;-81
2023/03/11 02:21:29;;;;;;;2.97;1.40;;;;;;;;;;10303688;28;20812;-80
2023/03/11 02:26:37;;;;;;;2.23;1.30;;;;;;;;;;10317290;28;20495;-79
2023/03/11 02:31:39;;;;;;;4.60;1.30;;;;;;;;;;10299640;28;20134;-81
2023/03/11 02:36:41;;;;;;;2.83;1.70;;;;;;;;;;10318849;28;20118;-80
2023/03/11 02:41:46;;;;;;;6.70;4.57;;;;;;;;;;10303180;28;20051;-80
2023/03/11 02:46:47;;;;;;;7.37;4.50;;;;;;;;;;10303335;28;20069;-79
2023/03/11 02:51:48;;;;;;;10.67;7.03;;;;;;;;;;10324688;28;20084;-81
2023/03/11 02:56:49;;;;;;;10.07;5.50;;;;;;;;;;10288889;28;20026;-79
2023/03/11 03:01:50;;;;;;;4.93;2.83;;;;;;;;;;10290984;28;20026;-80
2023/03/11 03:06:51;;;;;;;4.80;2.60;;;;;;;;;;10309315;28;20033;-81
2023/03/11 03:11:52;;;;;;;4.03;2.43;;;;;;;;;;10321906;28;20117;-81
2023/03/11 03:16:54;;;;;;;4.33;2.10;;;;;;;;;;10286563;28;20170;-81
2023/03/11 03:21:55;;;;;;;4.70;2.30;;;;;;;;;;10291308;28;20046;-80
2023/03/11 03:26:57;;;;;;;1.87;1.50;;;;;;;;;;10313635;28;20030;-80
2023/03/11 03:31:58;;;;;;;3.77;1.77;;;;;;;;;;10304982;28;20104;-81
2023/03/11 03:36:59;;;;;;;4.53;2.03;;;;;;;;;;10321852;28;20038;-80
2023/03/11 03:42:00;;;;;;;2.87;2.20;;;;;;;;;;10305370;28;20066;-82
2023/03/11 03:47:01;;;;;;;3.00;1.73;;;;;;;;;;10304829;28;20038;-81
2023/03/11 03:52:02;;;;;;;4.87;2.50;;;;;;;;;;10315966;28;20041;-81
2023/03/11 03:57:03;;;;;;;4.80;2.50;;;;;;;;;;10319409;28;20056;-80
2023/03/11 04:02:04;;;;;;;3.73;2.30;;;;;;;;;;10286637;28;20043;-80
2023/03/11 04:07:06;;;;;;;4.07;2.17;;;;;;;;;;10297360;28;20513;-81
2023/03/11 04:12:07;;;;;;;5.77;2.30;;;;;;;;;;10309796;28;20364;-80
2023/03/11 04:17:10;;;;;;;2.90;2.23;;;;;;;;;;10297073;28;20042;-80
2023/03/11 04:22:11;;;;;;;6.23;3.30;;;;;;;;;;10307615;28;20047;-82
2023/03/11 04:27:12;;;;;;;4.77;2.90;;;;;;;;;;10296634;28;20426;-84
2023/03/11 04:32:13;;;;;;;7.07;3.00;;;;;;;;;;10305003;28;20030;-83
2023/03/11 04:37:14;;;;;;;6.33;3.30;;;;;;;;;;10320856;28;20022;-82
2023/03/11 04:42:15;;;;;;;6.67;3.30;;;;;;;;;;10312618;28;20030;-82
2023/03/11 04:47:16;;;;;;;4.47;2.70;;;;;;;;;;10307707;28;20034;-82
2023/03/11 04:52:17;;;;;;;6.17;2.87;;;;;;;;;;10301882;28;20453;-81
2023/03/11 04:57:18;;;;;;;4.60;2.90;;;;;;;;;;10308051;28;20044;-81
2023/03/11 05:02:19;;;;;;;6.80;4.07;;;;;;;;;;10306591;28;20094;-80
2023/03/11 05:07:20;;;;;;;8.50;4.03;;;;;;;;;;10325820;28;20045;-82
2023/03/11 05:12:21;;;;;;;5.67;3.83;;;;;;;;;;10301695;28;20043;-82
2023/03/11 05:17:23;;;;;;;8.73;4.27;;;;;;;;;;10271713;28;20030;-80
2023/03/11 05:22:24;;;;;;;12.07;4.93;;;;;;;;;;10312675;28;20049;-80
2023/03/11 05:27:25;;;;;;;8.53;5.60;;;;;;;;;;10301626;28;20825;-80
2023/03/11 05:32:26;;;;;;;8.70;5.40;;;;;;;;;;10313369;28;20503;-82
2023/03/11 05:37:27;;;;;;;10.77;5.30;;;;;;;;;;10287385;28;20039;-82
2023/03/11 05:42:28;;;;;;;15.90;7.90;;;;;;;;;;10299949;28;20050;-82
2023/03/11 05:47:29;;;;;;;11.30;5.53;;;;;;;;;;10298853;28;20379;-81
2023/03/11 05:52:32;;;;;;;5.97;3.53;;;;;;;;;;10291651;28;20038;-81
2023/03/11 05:57:33;;;;;;;8.40;3.63;;;;;;;;;;10299677;28;20053;-80
2023/03/11 06:02:34;;;;;;;9.50;5.23;;;;;;;;;;10316912;28;20040;-81
2023/03/11 06:07:35;;;;;;;6.40;3.13;;;;;;;;;;10324043;28;20918;-81
2023/03/11 06:12:37;;;;;;;14.03;6.33;;;;;;;;;;10319034;28;20134;-79
2023/03/11 06:17:38;;;;;;;15.33;5.57;;;;;;;;;;10321172;28;20505;-82
2023/03/11 06:22:39;;;;;;;14.97;5.47;;;;;;;;;;10321578;28;20065;-83
2023/03/11 06:27:40;;;;;;;20.57;9.17;;;;;;;;;;10317853;28;20035;-81
2023/03/11 06:32:43;;;;;;;13.33;6.27;;;;;;;;;;10370946;23;20062;-81
2023/03/11 06:37:44;;;;;;;8.17;4.43;;;;;;;;;;10362932;28;20080;-80
2023/03/11 06:42:49;;;;;;;17.67;6.60;;;;;;;;;;10364637;28;20029;-84
2023/03/11 06:47:50;;;;;;;14.13;6.83;;;;;;;;;;10364737;28;20100;-81
2023/03/11 06:52:51;;;;;;;21.53;10.67;;;;;;;;;;10369043;28;20061;-79
2023/03/11 06:57:52;;;;;;;24.83;11.17;;;;;;;;;;10411887;22;20526;-79
2023/03/11 07:02:53;;;;;;;38.33;16.50;;;;;;;;;;10416155;28;20033;-79
2023/03/11 07:07:54;;;;;;;19.60;9.27;;;;;;;;;;10386041;28;20042;-80
2023/03/11 07:12:55;;;;;;;22.10;10.90;;;;;;;;;;10361654;28;20021;-78
2023/03/11 07:17:56;;;;;;;23.30;12.03;;;;;;;;;;10352891;28;20389;-79
2023/03/11 07:22:57;;;;;;;27.87;14.20;;;;;;;;;;10351327;28;20038;-78
2023/03/11 07:27:58;;;;;;;32.87;16.67;;;;;;;;;;10352735;28;20033;-78
2023/03/11 07:33:00;;;;;;;40.60;18.83;;;;;;;;;;10332564;28;20026;-78
2023/03/11 07:38:01;;;;;;;34.17;17.90;;;;;;;;;;10353056;28;20360;-80
2023/03/11 07:43:02;;;;;;;430.93;244.53;;;;;;;;;;10363708;28;20150;-80
2023/03/11 07:48:03;;;;;;;343.27;158.50;;;;;;;;;;10363453;28;20038;-79
2023/03/11 07:53:04;;;;;;;85.83;37.90;;;;;;;;;;10345205;28;20438;-79
2023/03/11 07:58:05;;;;;;;46.17;21.77;;;;;;;;;;10366307;28;20053;-81
2023/03/11 08:03:06;;;;;;;51.07;23.37;;;;;;;;;;10347116;28;20030;-83
2023/03/11 08:08:07;;;;;;;30.97;15.63;;;;;;;;;;10371919;28;20466;-80
2023/03/11 08:13:08;;;;;;;38.40;17.30;;;;;;;;;;10336074;28;20026;-81
2023/03/11 08:18:09;;;;;;;39.00;20.70;;;;;;;;;;10337794;28;20036;-82
2023/03/11 08:23:11;;;;;;;28.57;15.37;;;;;;;;;;10342446;28;20038;-80
2023/03/11 08:28:12;;;;;;;34.87;18.60;;;;;;;;;;10341594;28;20026;-85
2023/03/11 08:33:13;;;;;;;22.30;10.93;;;;;;;;;;10334667;28;20034;-83
2023/03/11 08:38:14;;;;;;;32.53;15.77;;;;;;;;;;10370390;28;20498;-84
2023/03/11 08:43:15;;;;;;;33.10;16.63;;;;;;;;;;10360337;28;20037;-82
2023/03/11 08:48:16;;;;;;;26.77;12.53;;;;;;;;;;10358525;28;20038;-83
2023/03/11 08:53:17;;;;;;;27.30;13.17;;;;;;;;;;10373000;28;20034;-82
2023/03/11 08:58:18;;;;;;;27.30;12.73;;;;;;;;;;10338688;28;20054;-83
2023/03/11 09:03:20;;;;;;;41.53;17.20;;;;;;;;;;10372208;28;20041;-83
2023/03/11 09:08:21;;;;;;;38.07;16.80;;;;;;;;;;10352948;28;20029;-86
2023/03/11 09:13:22;;;;;;;38.17;19.67;;;;;;;;;;10360951;28;20025;-84
2023/03/11 09:18:23;;;;;;;41.50;16.90;;;;;;;;;;10363917;28;20048;-82
2023/03/11 09:23:24;;;;;;;40.77;17.93;;;;;;;;;;10366224;28;20712;-84
2023/03/11 09:28:25;;;;;;;57.17;23.73;;;;;;;;;;10354486;28;20044;-85
2023/03/11 09:33:27;;;;;;;56.83;21.33;;;;;;;;;;10354923;28;20040;-87
2023/03/11 09:38:28;;;;;;;46.10;19.53;;;;;;;;;;10361756;28;20037;-85
2023/03/11 09:43:44;;;;;;;51.83;23.17;;;;;;;;;;10354367;28;20700;-83
2023/03/11 09:48:53;;;;;;;70.23;29.50;;;;;;;;;;10355358;28;20129;-83
2023/03/11 09:54:04;;;;;;;37.13;17.23;;;;;;;;;;10377855;28;20033;-84
2023/03/11 09:59:09;;;;;;;42.97;19.43;;;;;;;;;;10358314;28;20062;-86
2023/03/11 10:04:21;;;;;;;44.43;21.00;;;;;;;;;;10384907;28;20045;-83
2023/03/11 10:09:33;;;;;;;57.73;23.60;;;;;;;;;;10376145;28;20034;-83
2023/03/11 10:14:34;;;;;;;38.93;17.47;;;;;;;;;;10369028;28;20117;-83
2023/03/11 10:19:41;;;;;;;53.40;25.57;;;;;;;;;;10381595;28;20021;-84
2023/03/11 10:24:50;;;;;;;40.87;19.03;;;;;;;;;;10364440;28;20049;-83
2023/03/11 10:29:54;;;;;;;36.43;16.33;;;;;;;;;;10362143;28;20676;-83
2023/03/11 10:35:02;;;;;;;38.83;18.13;;;;;;;;;;10347543;28;20086;-85
2023/03/11 10:40:14;;;;;;;40.60;17.17;;;;;;;;;;10347819;28;20099;-82
2023/03/11 10:45:15;;;;;;;28.17;12.60;;;;;;;;;;10356325;28;20750;-83
2023/03/11 10:50:16;;;;;;;24.50;10.60;;;;;;;;;;10366937;28;20100;-83
2023/03/11 10:55:18;;;;;;;21.43;9.67;;;;;;;;;;10346757;28;20117;-84
2023/03/11 11:00:28;;;;;;;38.17;17.07;;;;;;;;;;10364947;28;20050;-82
2023/03/11 11:05:36;;;;;;;28.13;12.33;;;;;;;;;;10354327;28;20041;-82
2023/03/11 11:10:48;;;;;;;20.73;9.80;;;;;;;;;;10356920;28;20061;-84
2023/03/11 11:15:55;;;;;;;12.43;5.10;;;;;;;;;;10363542;28;20037;-81
2023/03/11 11:20:59;;;;;;;9.43;4.73;;;;;;;;;;10374389;28;20055;-83
2023/03/11 11:26:03;;;;;;;8.80;4.50;;;;;;;;;;10364339;28;20034;-83
2023/03/11 11:31:05;;;;;;;10.53;4.60;;;;;;;;;;10373082;28;20034;-84
2023/03/11 11:36:13;;;;;;;9.43;5.03;;;;;;;;;;10357029;28;20034;-84
2023/03/11 11:41:16;;;;;;;7.27;3.97;;;;;;;;;;10354660;28;20402;-83
2023/03/11 11:46:36;;;;;;;12.30;6.87;;;;;;;;;;10362476;28;20041;-86
2023/03/11 11:51:40;;;;;;;15.40;6.73;;;;;;;;;;10364954;28;20021;-84
2023/03/11 11:56:41;;;;;;;14.80;7.60;;;;;;;;;;10363744;28;20125;-85
2023/03/11 12:01:48;;;;;;;15.67;8.10;;;;;;;;;;10374515;28;20025;-87
2023/03/11 12:07:07;;;;;;;12.90;6.23;;;;;;;;;;10361724;28;20731;-84
2023/03/11 12:12:26;;;;;;;10.80;5.33;;;;;;;;;;10363204;28;20401;-85
2023/03/11 12:17:27;;;;;;;10.33;5.80;;;;;;;;;;10362551;28;20393;-85
2023/03/11 12:22:40;;;;;;;9.60;5.27;;;;;;;;;;10353495;28;20042;-84
2023/03/11 12:27:41;;;;;;;14.87;6.67;;;;;;;;;;10342124;28;20041;-85
2023/03/11 12:32:53;;;;;;;12.17;6.30;;;;;;;;;;10360347;28;20033;-84
2023/03/11 12:37:56;;;;;;;11.27;6.03;;;;;;;;;;10365663;28;20038;-87
2023/03/11 12:42:57;;;;;;;12.00;6.07;;;;;;;;;;10350779;28;20068;-85
2023/03/11 12:48:16;;;;;;;13.37;6.20;;;;;;;;;;10355786;28;20065;-85
2023/03/11 12:53:18;;;;;;;16.80;6.80;;;;;;;;;;10356580;28;20437;-85
2023/03/11 12:58:32;;;;;;;12.43;5.83;;;;;;;;;;10361498;28;20629;-85
2023/03/11 13:03:33;;;;;;;12.13;6.13;;;;;;;;;;10357055;28;20371;-89
2023/03/11 13:08:54;;;;;;;15.63;7.33;;;;;;;;;;10360856;28;20044;-85
2023/03/11 13:14:08;;;;;;;12.00;6.00;;;;;;;;;;10354603;28;20104;-86
2023/03/11 13:19:28;;;;;;;12.00;5.80;;;;;;;;;;10343971;28;20030;-84
2023/03/11 13:24:29;;;;;;;15.90;7.00;;;;;;;;;;10355630;28;20042;-85
2023/03/11 13:29:51;;;;;;;10.37;5.27;;;;;;;;;;10371999;28;20033;-85
2023/03/11 13:35:03;;;;;;;12.33;5.93;;;;;;;;;;10369808;28;20088;-84
2023/03/11 13:40:26;;;;;;;11.53;5.93;;;;;;;;;;10398115;22;20064;-83
2023/03/11 13:45:34;;;;;;;13.93;6.90;;;;;;;;;;10396130;28;20060;-84
2023/03/11 13:50:38;;;;;;;11.57;6.23;;;;;;;;;;10390669;28;20037;-84
2023/03/11 13:55:42;;;;;;;13.80;6.33;;;;;;;;;;10390801;28;20029;-85
2023/03/11 14:00:47;;;;;;;13.17;6.53;;;;;;;;;;10403288;28;20029;-85
2023/03/11 14:06:01;;;;;;;13.27;5.90;;;;;;;;;;10394967;28;20489;-85
2023/03/11 14:11:10;;;;;;;14.63;7.00;;;;;;;;;;10363522;28;20446;-84
2023/03/11 14:16:23;;;;;;;16.03;7.07;;;;;;;;;;10366250;28;20115;-83
2023/03/11 14:21:24;;;;;;;13.50;7.13;;;;;;;;;;10358303;28;20077;-86
2023/03/11 14:26:30;;;;;;;13.30;6.63;;;;;;;;;;10367010;28;20673;-83
2023/03/11 14:31:32;;;;;;;14.93;6.40;;;;;;;;;;10363643;28;20022;-83
2023/03/11 14:36:40;;;;;;;14.70;7.30;;;;;;;;;;10362729;28;20433;-82
2023/03/11 14:41:41;;;;;;;19.70;7.97;;;;;;;;;;10365504;28;20045;-82
2023/03/11 14:46:42;;;;;;;22.40;8.50;;;;;;;;;;10361776;28;20205;-82
2023/03/11 14:51:44;;;;;;;27.53;11.00;;;;;;;;;;10363881;28;20033;-84
2023/03/11 14:56:50;;;;;;;23.90;10.10;;;;;;;;;;10365119;28;20026;-83
2023/03/11 15:01:55;;;;;;;21.80;8.82;;;;;;;;;;10359798;28;20146;-82
2023/03/11 15:06:58;;;;;;;19.15;9.57;;;;;;;;;;10357671;28;20065;-84
2023/03/11 15:12:00;;;;;;;16.93;8.17;;;;;;;;;;10364023;28;20045;-86
2023/03/11 15:17:29;;;;;;;19.63;7.97;;;;;;;;;;10363675;28;20030;-82
2023/03/11 15:22:30;;;;;;;16.43;6.60;;;;;;;;;;10351077;28;20051;-86
2023/03/11 15:27:31;;;;;;;16.73;7.07;;;;;;;;;;10354067;28;20041;-81
2023/03/11 15:32:32;;;;;;;13.57;6.37;;;;;;;;;;10362002;28;20532;-84
2023/03/11 15:37:33;;;;;;;12.27;5.97;;;;;;;;;;10361046;28;20339;-83
2023/03/11 15:42:34;;;;;;;17.87;7.00;;;;;;;;;;10357578;28;20042;-83
2023/03/11 15:47:35;;;;;;;17.60;7.60;;;;;;;;;;10359213;28;20045;-83
2023/03/11 15:52:37;;;;;;;17.73;7.83;;;;;;;;;;10348555;28;20489;-84
2023/03/11 15:57:39;;;;;;;12.50;6.20;;;;;;;;;;10363434;28;20038;-83
2023/03/11 16:02:40;;;;;;;13.23;6.17;;;;;;;;;;10359720;28;20601;-83
2023/03/11 16:07:41;;;;;;;15.07;6.83;;;;;;;;;;10354571;28;20389;-83
2023/03/11 16:12:42;;;;;;;14.53;6.63;;;;;;;;;;10363226;28;20034;-85
2023/03/11 16:17:43;;;;;;;13.67;6.50;;;;;;;;;;10359212;28;20045;-85
2023/03/11 16:22:45;;;;;;;13.77;6.90;;;;;;;;;;10358253;28;20049;-84
2023/03/11 16:27:46;;;;;;;11.70;6.33;;;;;;;;;;10357459;28;20045;-88
2023/03/11 16:32:48;;;;;;;11.50;5.97;;;;;;;;;;10367828;22;20054;-84
2023/03/11 16:37:49;;;;;;;14.47;6.20;;;;;;;;;;10366373;28;20668;-82
2023/03/11 16:42:50;;;;;;;14.10;6.00;;;;;;;;;;10352361;28;20497;-85
2023/03/11 16:47:51;;;;;;;13.13;6.23;;;;;;;;;;10378195;28;20425;-82
2023/03/11 16:52:53;;;;;;;14.10;6.20;;;;;;;;;;10364848;28;20087;-83
2023/03/11 16:57:57;;;;;;;11.50;5.57;;;;;;;;;;10363116;28;20030;-84
2023/03/11 17:02:58;;;;;;;17.40;6.07;;;;;;;;;;10372534;28;20509;-83
2023/03/11 17:08:02;;;;;;;14.57;5.93;;;;;;;;;;10373876;28;20049;-86
2023/03/11 17:13:07;;;;;;;12.70;6.37;;;;;;;;;;10369792;28;20034;-83
2023/03/11 17:18:08;;;;;;;12.20;5.90;;;;;;;;;;10372648;28;20387;-82
2023/03/11 17:23:09;;;;;;;13.77;6.50;;;;;;;;;;10372463;28;20050;-82
2023/03/11 17:28:10;;;;;;;14.03;6.30;;;;;;;;;;10374225;28;20042;-83
2023/03/11 17:33:11;;;;;;;10.00;5.27;;;;;;;;;;10373557;28;20073;-82
2023/03/11 17:38:12;;;;;;;16.33;6.93;;;;;;;;;;10374507;28;20117;-84
2023/03/11 17:43:13;;;;;;;15.43;6.50;;;;;;;;;;10373948;28;20029;-86
2023/03/11 17:48:14;;;;;;;16.33;7.37;;;;;;;;;;10372247;28;20034;-85
2023/03/11 17:53:15;;;;;;;17.80;8.73;;;;;;;;;;10372495;28;20030;-81
2023/03/11 17:58:16;;;;;;;19.40;8.60;;;;;;;;;;10373330;28;20030;-83
2023/03/11 18:03:17;;;;;;;20.27;9.17;;;;;;;;;;10374039;28;20029;-85
2023/03/11 18:08:18;;;;;;;17.27;7.73;;;;;;;;;;10373408;28;20053;-82
2023/03/11 18:13:20;;;;;;;22.17;8.37;;;;;;;;;;10367928;28;20030;-81
2023/03/11 18:18:21;;;;;;;18.17;8.10;;;;;;;;;;10366815;28;20021;-84
2023/03/11 18:23:22;;;;;;;14.07;7.53;;;;;;;;;;10365476;28;20038;-82
2023/03/11 18:28:23;;;;;;;18.87;8.63;;;;;;;;;;10366605;28;20066;-84
2023/03/11 18:33:24;;;;;;;18.13;8.07;;;;;;;;;;10366009;28;20124;-83
2023/03/11 18:38:25;;;;;;;16.70;7.33;;;;;;;;;;10364974;28;20034;-83
2023/03/11 18:43:26;;;;;;;19.53;8.57;;;;;;;;;;10366424;28;20092;-82
2023/03/11 18:48:27;;;;;;;17.00;7.63;;;;;;;;;;10364957;28;20042;-83
2023/03/11 18:53:28;;;;;;;20.33;8.77;;;;;;;;;;10363830;28;20653;-83
2023/03/11 18:58:29;;;;;;;17.37;7.63;;;;;;;;;;10364734;28;20045;-82
2023/03/11 19:03:30;;;;;;;14.33;6.87;;;;;;;;;;10363494;28;20049;-84
2023/03/11 19:08:31;;;;;;;18.30;7.57;;;;;;;;;;10362923;28;20049;-82
2023/03/11 19:13:34;;;;;;;18.30;7.70;;;;;;;;;;10363729;28;20033;-82
2023/03/11 19:18:35;;;;;;;18.07;8.90;;;;;;;;;;10364204;28;20038;-81
2023/03/11 19:23:36;;;;;;;16.03;7.73;;;;;;;;;;10361914;28;20064;-82
2023/03/11 19:28:38;;;;;;;24.73;8.67;;;;;;;;;;10364334;28;20080;-83
2023/03/11 19:33:39;;;;;;;19.53;7.80;;;;;;;;;;10363211;28;20093;-84
2023/03/11 19:38:40;;;;;;;20.57;9.43;;;;;;;;;;10361065;28;20046;-83
2023/03/11 19:43:41;;;;;;;20.43;8.73;;;;;;;;;;10362416;28;20050;-83
2023/03/11 19:48:42;;;;;;;17.40;10.07;;;;;;;;;;10361690;28;20038;-84
2023/03/11 19:53:44;;;;;;;15.90;8.50;;;;;;;;;;10361135;28;20033;-83
2023/03/11 19:58:45;;;;;;;21.27;8.60;;;;;;;;;;10363014;28;20054;-83
2023/03/11 20:03:47;;;;;;;23.60;9.20;;;;;;;;;;10361811;28;20129;-83
2023/03/11 20:08:48;;;;;;;19.30;8.77;;;;;;;;;;10348557;28;20022;-83
2023/03/11 20:13:49;;;;;;;23.67;9.50;;;;;;;;;;10362376;28;20036;-83
2023/03/11 20:18:52;;;;;;;21.93;9.00;;;;;;;;;;10361548;28;20022;-83
2023/03/11 20:23:54;;;;;;;20.10;10.03;;;;;;;;;;10361731;28;20080;-80
2023/03/11 20:28:55;;;;;;;17.67;9.20;;;;;;;;;;10361889;28;20037;-82
2023/03/11 20:33:57;;;;;;;21.13;9.50;;;;;;;;;;10361257;28;20485;-84
2023/03/11 20:38:58;;;;;;;20.47;10.10;;;;;;;;;;10345138;28;20061;-83
2023/03/11 20:43:59;;;;;;;20.90;9.87;;;;;;;;;;10360034;28;20087;-83
2023/03/11 20:49:00;;;;;;;21.97;9.83;;;;;;;;;;10359961;28;20146;-83
2023/03/11 20:54:02;;;;;;;20.57;10.33;;;;;;;;;;10361331;28;20072;-81
2023/03/11 20:59:04;;;;;;;21.77;10.80;;;;;;;;;;10358760;28;20525;-85
2023/03/11 21:04:05;;;;;;;22.40;10.20;;;;;;;;;;10357390;28;20560;-82
2023/03/11 21:09:08;;;;;;;18.83;10.13;;;;;;;;;;10360255;28;20034;-81
2023/03/11 21:14:09;;;;;;;23.53;9.17;;;;;;;;;;10361044;28;20022;-81
2023/03/11 21:19:12;;;;;;;20.53;9.73;;;;;;;;;;10359703;28;20104;-81
2023/03/11 21:24:13;;;;;;;17.43;7.57;;;;;;;;;;10359580;28;20121;-81
2023/03/11 21:29:15;;;;;;;18.03;8.30;;;;;;;;;;10359572;28;20397;-82
2023/03/11 21:34:16;;;;;;;22.97;9.47;;;;;;;;;;10359020;28;20133;-82
2023/03/11 21:39:39;;;;;;;18.30;8.70;;;;;;;;;;10360536;28;20022;-81
2023/03/11 21:44:41;;;;;;;20.73;8.83;;;;;;;;;;10354569;28;20034;-83
2023/03/11 21:49:42;;;;;;;20.40;9.23;;;;;;;;;;10355318;28;20029;-83
2023/03/11 21:54:43;;;;;;;26.13;9.70;;;;;;;;;;10354617;28;20026;-83
2023/03/11 21:59:53;;;;;;;30.37;12.90;;;;;;;;;;10368138;28;20026;-83
2023/03/11 22:05:20;;;;;;;24.00;11.03;;;;;;;;;;10365123;28;20161;-83
2023/03/11 22:10:21;;;;;;;25.63;12.50;;;;;;;;;;10361393;28;20045;-82
2023/03/11 22:15:22;;;;;;;24.17;11.93;;;;;;;;;;10364667;28;20044;-83
2023/03/11 22:20:23;;;;;;;19.87;10.23;;;;;;;;;;10364884;28;20033;-82
2023/03/11 22:25:25;;;;;;;17.47;8.80;;;;;;;;;;10364780;28;20068;-82
2023/03/11 22:30:26;;;;;;;19.23;8.73;;;;;;;;;;10342064;28;20049;-82
2023/03/11 22:35:35;;;;;;;18.63;8.13;;;;;;;;;;10363496;28;20057;-83
2023/03/11 22:40:36;;;;;;;15.90;7.80;;;;;;;;;;10378671;23;20056;-82
2023/03/11 22:45:49;;;;;;;22.47;8.70;;;;;;;;;;10366773;28;20088;-82
2023/03/11 22:50:50;;;;;;;18.63;8.40;;;;;;;;;;10374370;28;20050;-82
2023/03/11 22:55:51;;;;;;;23.30;9.90;;;;;;;;;;10368081;28;20116;-83
2023/03/11 23:12:13;;;;;;;28.43;13.00;;;;;;;;;;10356065;28;20042;-83
2023/03/11 23:22:58;;;;;;;32.90;15.70;;;;;;;;;;10362575;28;20072;-83
2023/03/11 23:28:00;;;;;;;38.70;16.20;;;;;;;;;;10364396;28;20041;-82
2023/03/11 23:33:02;;;;;;;21.93;9.73;;;;;;;;;;10361168;28;20045;-82
2023/03/11 23:38:03;;;;;;;22.37;10.10;;;;;;;;;;10429928;23;20049;-82
2023/03/11 23:43:04;;;;;;;18.30;9.93;;;;;;;;;;10428835;28;20036;-81
2023/03/11 23:48:05;;;;;;;21.77;8.77;;;;;;;;;;10428810;28;20535;-82
2023/03/11 23:53:05;;;;;;;20.30;9.83;;;;;;;;;;10440590;28;20268;-82
2023/03/11 23:58:08;;;;;;;36.20;16.10;;;;;;;;;;10443209;28;20029;-82
